This is the latest recevied weather packets stored in our database for station/object EA2CQ-4. If no packets are shown the sender has not sent any weather packets the latest 10 day(s).
| Time | Temp. | Humidity | Pressure | Rain* | Wind** | Luminosity | Snow |
|---|---|---|---|---|---|---|---|
| 1778358645 | 21.67° C | 46% | 948.3 hPa | - | - | - | - |
| 1778303096 | 21.67° C | 45% | 949.2 hPa | - | - | - | - |
| 1778302796 | 21.11° C | 46% | 949.3 hPa | - | - | - | - |
| 1778291533 | 21.67° C | 43% | 950.1 hPa | - | - | - | - |
| 1778291236 | 21.11° C | 44% | 950.2 hPa | - | - | - | - |
| 1778285061 | 23.33° C | 39% | 950.5 hPa | - | - | - | - |
| 1778284762 | 23.33° C | 39% | 950.5 hPa | - | - | - | - |
| 1778284462 | 23.33° C | 39% | 950.5 hPa | - | - | - | - |
| 1778284160 | 23.33° C | 39% | 950.5 hPa | - | - | - | - |
| 1778283860 | 23.33° C | 38% | 950.5 hPa | - | - | - | - |
| 1778283563 | 23.33° C | 39% | 950.5 hPa | - | - | - | - |
| 1778283256 | 23.33° C | 39% | 950.6 hPa | - | - | - | - |
| 1778282956 | 23.33° C | 38% | 950.6 hPa | - | - | - | - |
| 1778282656 | 23.33° C | 39% | 950.7 hPa | - | - | - | - |
| 1778282358 | 23.33° C | 39% | 950.7 hPa | - | - | - | - |
| 1778282058 | 23.33° C | 39% | 950.7 hPa | - | - | - | - |
| 1778281756 | 23.33° C | 39% | 950.7 hPa | - | - | - | - |
| 1778281156 | 23.89° C | 38% | 950.8 hPa | - | - | - | - |
| 1778280555 | 23.89° C | 38% | 950.8 hPa | - | - | - | - |
| 1778280255 | 23.33° C | 39% | 950.9 hPa | - | - | - | - |
| 1778279655 | 23.89° C | 37% | 951.1 hPa | - | - | - | - |
| 1778279355 | 23.33° C | 39% | 951 hPa | - | - | - | - |
| 1778278753 | 23.33° C | 39% | 951.1 hPa | - | - | - | - |
| 1778278453 | 23.33° C | 39% | 951.1 hPa | - | - | - | - |
| 1778277552 | 23.33° C | 38% | 951.1 hPa | - | - | - | - |
* Rain since midnight (hover to see other rain measurements)
** Current wind speed in m/s (hover to see current wind gust speed)